CSR4 weather

CLOSED Rimouski (Hydro-Qu├ębec) Heliport
Rimouski, Quebec, Canada

Public forecast

Using degrees Celsius for public forecast. Weather courtesy of forecast.io.

METAR (pilot weather report)

Closest report is Mont Joli Airport, 16.7 nm (30.9 km) NE. Retrieved 2019/05/19 17:00 UTC (51 minutes ago):

CYYY 191700Z 03008KT 30SM FEW030 BKN150 12/03 A3007 RMK SC1AC6 SLP186

TAF (pilot weather forecast)

Closest forecast is Mont Joli Airport, 16.7 nm (30.9 km) NE. Retrieved 2019/05/19 14:00 UTC (4 hours ago):

TAF CYYY 191338Z 1914/2002 VRB03KT P6SM OVC140 BECMG 1914/1916 04012KT FM191800 04012KT P6SM BKN030 BKN080 TEMPO 1918/1924 P6SM -RA OVC030 BECMG 1919/1921 08006KT FM200000 08006KT P6SM FEW020 OVC040 TEMPO 2000/2002 5SM BR BKN020 OVC040 RMK NXT FCST BY 192000Z